createdAt,value
2022-09-02T00:00:00.884Z,73.90
2022-09-02T00:01:00.886Z,73.80
2022-09-02T00:02:01.038Z,73.69
2022-09-02T00:03:00.986Z,73.59
2022-09-02T00:04:00.839Z,73.59
2022-09-02T00:05:00.840Z,73.69
2022-09-02T00:06:00.829Z,73.59
2022-09-02T00:07:00.807Z,73.59
2022-09-02T00:08:00.805Z,73.49
2022-09-02T00:09:00.797Z,73.49
2022-09-02T00:10:00.776Z,73.49
2022-09-02T00:11:00.769Z,73.59
2022-09-02T00:12:00.755Z,73.59
2022-09-02T00:13:00.757Z,73.49
2022-09-02T00:14:00.766Z,73.59
2022-09-02T00:15:00.721Z,73.49
2022-09-02T00:16:00.709Z,73.49
2022-09-02T00:17:00.999Z,73.49
2022-09-02T00:18:00.697Z,73.49
2022-09-02T00:19:00.706Z,73.39
2022-09-02T00:20:00.665Z,73.39
2022-09-02T00:21:00.661Z,73.39
2022-09-02T00:22:00.641Z,73.49
2022-09-02T00:23:00.631Z,73.49
2022-09-02T00:24:00.611Z,73.39
2022-09-02T00:25:00.618Z,73.39
2022-09-02T00:26:00.587Z,73.29
2022-09-02T00:27:00.586Z,73.29
2022-09-02T00:28:00.598Z,73.29
2022-09-02T00:29:00.572Z,73.39
2022-09-02T00:30:00.560Z,73.39
2022-09-02T00:31:00.557Z,73.39
2022-09-02T00:32:00.572Z,73.39
2022-09-02T00:33:00.522Z,73.39
2022-09-02T00:34:00.498Z,73.39
2022-09-02T00:35:00.499Z,73.39
2022-09-02T00:36:00.490Z,73.39
2022-09-02T00:37:00.488Z,73.39
2022-09-02T00:38:00.473Z,73.39
2022-09-02T00:39:00.462Z,73.39
2022-09-02T00:40:00.435Z,73.39
2022-09-02T00:41:00.431Z,73.29
2022-09-02T00:42:00.431Z,73.29
2022-09-02T00:43:00.412Z,73.25
2022-09-02T00:44:00.403Z,73.29
2022-09-02T00:45:00.399Z,73.25
2022-09-02T00:46:00.443Z,73.25
2022-09-02T00:47:00.489Z,73.25
2022-09-02T00:48:00.353Z,73.25
2022-09-02T00:49:00.342Z,73.25
2022-09-02T00:50:00.562Z,73.25
2022-09-02T00:51:00.346Z,73.25
2022-09-02T00:52:00.310Z,73.36
2022-09-02T00:53:00.290Z,73.36
2022-09-02T00:54:00.283Z,73.36
2022-09-02T00:55:00.297Z,73.36
2022-09-02T00:56:00.256Z,73.36
2022-09-02T00:57:00.250Z,73.46
2022-09-02T00:58:00.248Z,73.46
2022-09-02T00:59:00.231Z,73.36
2022-09-02T01:00:00.256Z,73.15
2022-09-02T01:01:00.354Z,73.15
2022-09-02T01:02:00.396Z,73.25
2022-09-02T01:03:00.184Z,73.29
2022-09-02T01:04:00.177Z,73.25
2022-09-02T01:05:00.200Z,73.39
2022-09-02T01:06:00.177Z,73.39
2022-09-02T01:07:00.146Z,73.39
2022-09-02T01:08:00.147Z,73.39
2022-09-02T01:09:00.247Z,73.49
2022-09-02T01:10:00.126Z,73.59
2022-09-02T01:11:00.318Z,73.49
2022-09-02T01:12:00.080Z,73.39
2022-09-02T01:13:00.087Z,73.39
2022-09-02T01:14:00.079Z,73.39
2022-09-02T01:15:00.053Z,73.39
2022-09-02T01:16:00.135Z,73.39
2022-09-02T01:17:00.030Z,73.29
2022-09-02T01:18:00.022Z,73.09
2022-09-02T01:19:00.008Z,73.19
2022-09-02T01:19:59.998Z,73.19
2022-09-02T01:20:59.987Z,73.19
2022-09-02T01:21:59.977Z,73.19
2022-09-02T01:22:59.960Z,73.19
2022-09-02T01:23:59.950Z,73.19
2022-09-02T01:24:59.947Z,73.09
2022-09-02T01:25:59.940Z,73.09
2022-09-02T01:26:59.935Z,72.99
2022-09-02T01:27:59.910Z,72.88
2022-09-02T01:28:59.891Z,72.88
2022-09-02T01:29:59.885Z,72.99
2022-09-02T01:30:59.874Z,72.99
2022-09-02T01:31:59.987Z,72.99
2022-09-02T01:32:59.849Z,72.99
2022-09-02T01:33:59.844Z,72.88
2022-09-02T01:34:59.821Z,72.88
2022-09-02T01:35:59.823Z,72.99
2022-09-02T01:36:59.814Z,73.09
2022-09-02T01:37:59.801Z,73.09
2022-09-02T01:38:59.779Z,73.19
2022-09-02T01:39:59.785Z,73.09
2022-09-02T01:40:59.758Z,73.09
2022-09-02T01:41:59.759Z,73.09
2022-09-02T01:42:59.751Z,73.09
2022-09-02T01:43:59.719Z,73.09
2022-09-02T01:44:59.714Z,73.09
2022-09-02T01:45:59.710Z,73.09
2022-09-02T01:46:59.743Z,73.09
2022-09-02T01:47:59.698Z,73.09
2022-09-02T01:48:59.663Z,72.99
2022-09-02T01:49:59.659Z,73.09
2022-09-02T01:50:59.643Z,73.19
2022-09-02T01:51:59.630Z,73.19
2022-09-02T01:52:59.667Z,73.19
2022-09-02T01:53:59.650Z,73.19
2022-09-02T01:54:59.608Z,73.19
2022-09-02T01:55:59.591Z,73.29
2022-09-02T01:56:59.578Z,73.29
2022-09-02T01:57:59.570Z,73.29
2022-09-02T01:58:59.564Z,73.39
2022-09-02T01:59:59.559Z,73.39
2022-09-02T02:00:59.584Z,73.63
2022-09-02T02:01:59.585Z,73.63
2022-09-02T02:02:59.508Z,73.73
2022-09-02T02:03:59.502Z,73.83
2022-09-02T02:04:59.515Z,73.83
2022-09-02T02:05:59.512Z,73.93
2022-09-02T02:06:59.463Z,73.93
2022-09-02T02:07:59.465Z,74.04
2022-09-02T02:08:59.505Z,73.83
2022-09-02T02:09:59.442Z,73.93
2022-09-02T02:10:59.452Z,73.83
2022-09-02T02:11:59.409Z,73.93
2022-09-02T02:12:59.404Z,73.93
2022-09-02T02:13:59.416Z,73.93
2022-09-02T02:14:59.384Z,73.93
2022-09-02T02:15:59.450Z,73.93
2022-09-02T02:16:59.367Z,74.13
2022-09-02T02:17:59.348Z,74.13
2022-09-02T02:18:59.333Z,74.24
2022-09-02T02:19:59.329Z,74.27
2022-09-02T02:20:59.329Z,74.27
2022-09-02T02:21:59.310Z,74.27
2022-09-02T02:22:59.294Z,74.27
2022-09-02T02:23:59.278Z,74.48
2022-09-02T02:24:59.276Z,74.48
2022-09-02T02:25:59.277Z,74.48
2022-09-02T02:26:59.249Z,74.48
2022-09-02T02:27:59.242Z,74.57
2022-09-02T02:28:59.223Z,74.68
2022-09-02T02:29:59.209Z,74.68
2022-09-02T02:30:59.225Z,74.77
2022-09-02T02:31:59.205Z,74.77
2022-09-02T02:32:59.208Z,74.77
2022-09-02T02:33:59.174Z,74.88
2022-09-02T02:34:59.162Z,74.98
2022-09-02T02:35:59.154Z,74.98
2022-09-02T02:36:59.160Z,75.08
2022-09-02T02:37:59.147Z,75.18
2022-09-02T02:38:59.150Z,75.18
2022-09-02T02:39:59.116Z,75.28
2022-09-02T02:40:59.084Z,75.28
2022-09-02T02:41:59.087Z,75.28
2022-09-02T02:42:59.078Z,75.18
2022-09-02T02:43:59.060Z,75.28
2022-09-02T02:44:59.053Z,75.38
2022-09-02T02:45:59.054Z,75.42
2022-09-02T02:46:59.071Z,75.42
2022-09-02T02:47:59.019Z,75.42
2022-09-02T02:48:59.011Z,75.52
2022-09-02T02:49:58.999Z,75.52
2022-09-02T02:50:58.982Z,75.52
2022-09-02T02:51:58.978Z,75.73
2022-09-02T02:52:58.972Z,75.73
2022-09-02T02:53:59.181Z,75.93
2022-09-02T02:54:58.947Z,75.93
2022-09-02T02:55:58.949Z,76.03
2022-09-02T02:56:58.931Z,76.13
2022-09-02T02:57:58.962Z,76.23
2022-09-02T02:58:58.911Z,76.23
2022-09-02T02:59:58.888Z,76.47
2022-09-02T03:00:58.869Z,76.57
2022-09-02T03:01:59.050Z,76.67
2022-09-02T03:02:58.978Z,76.78
2022-09-02T03:03:58.873Z,76.87
2022-09-02T03:04:58.842Z,76.87
2022-09-02T03:05:58.829Z,76.98
2022-09-02T03:06:58.821Z,76.87
2022-09-02T03:07:58.806Z,76.98
2022-09-02T03:08:58.796Z,77.18
2022-09-02T03:09:58.785Z,77.18
2022-09-02T03:10:58.776Z,77.32
2022-09-02T03:11:58.759Z,77.52
2022-09-02T03:12:58.746Z,77.62
2022-09-02T03:13:58.743Z,77.62
2022-09-02T03:14:58.751Z,77.62
2022-09-02T03:15:58.766Z,77.72
2022-09-02T03:16:58.698Z,77.83
2022-09-02T03:17:58.727Z,77.83
2022-09-02T03:18:58.683Z,77.93
2022-09-02T03:19:58.686Z,77.93
2022-09-02T03:20:58.663Z,77.93
2022-09-02T03:21:58.653Z,77.93
2022-09-02T03:22:58.636Z,77.93
2022-09-02T03:23:58.633Z,78.13
2022-09-02T03:24:58.639Z,78.13
2022-09-02T03:25:58.618Z,78.13
2022-09-02T03:26:58.590Z,78.13
2022-09-02T03:27:58.587Z,78.13
2022-09-02T03:28:58.565Z,78.13
2022-09-02T03:29:58.584Z,78.13
2022-09-02T03:30:58.598Z,78.23
2022-09-02T03:31:58.550Z,78.23
2022-09-02T03:33:03.618Z,78.27
2022-09-02T03:33:58.527Z,78.27
2022-09-02T03:34:58.511Z,78.37
2022-09-02T03:35:58.516Z,78.47
2022-09-02T03:36:58.489Z,78.47
2022-09-02T03:37:58.489Z,78.57
2022-09-02T03:38:58.466Z,78.57
2022-09-02T03:39:58.460Z,78.57
2022-09-02T03:40:58.463Z,78.67
2022-09-02T03:41:58.455Z,78.88
2022-09-02T03:43:00.361Z,78.98
2022-09-02T03:43:58.412Z,78.98
2022-09-02T03:44:58.395Z,79.08
2022-09-02T03:45:58.467Z,79.18
2022-09-02T03:46:58.386Z,79.22
2022-09-02T03:47:58.372Z,79.32
2022-09-02T03:48:58.371Z,79.52
2022-09-02T03:49:58.339Z,79.52
2022-09-02T03:50:58.339Z,79.52
2022-09-02T03:51:58.339Z,79.63
2022-09-02T03:52:58.320Z,79.63
2022-09-02T03:53:58.311Z,79.72
2022-09-02T03:54:58.281Z,79.72
2022-09-02T03:55:58.277Z,79.72
2022-09-02T03:56:58.256Z,79.83
2022-09-02T03:57:58.267Z,79.83
2022-09-02T03:58:58.255Z,79.83
2022-09-02T03:59:58.233Z,79.83
2022-09-02T04:00:58.229Z,79.83
2022-09-02T04:01:58.324Z,79.83
2022-09-02T04:02:58.255Z,79.83
2022-09-02T04:03:58.268Z,79.83
2022-09-02T04:04:58.172Z,79.83
2022-09-02T04:05:58.169Z,79.93
2022-09-02T04:06:58.146Z,80.03
2022-09-02T04:07:58.143Z,80.03
2022-09-02T04:08:58.121Z,80.13
2022-09-02T04:09:58.132Z,80.27
2022-09-02T04:10:58.109Z,80.27
2022-09-02T04:11:58.102Z,80.37
2022-09-02T04:12:58.091Z,80.37
2022-09-02T04:13:58.078Z,80.47
2022-09-02T04:14:58.088Z,80.47
2022-09-02T04:16:01.683Z,80.58
2022-09-02T04:16:58.041Z,80.58
2022-09-02T04:17:58.044Z,80.47
2022-09-02T04:18:58.010Z,80.58
2022-09-02T04:19:58.030Z,80.58
2022-09-02T04:20:58.007Z,80.68
2022-09-02T04:21:58.002Z,80.68
2022-09-02T04:22:57.975Z,80.68
2022-09-02T04:23:57.969Z,80.68
2022-09-02T04:24:57.947Z,80.68
2022-09-02T04:25:57.947Z,80.68
2022-09-02T04:27:01.991Z,80.68
2022-09-02T04:27:57.922Z,80.78
2022-09-02T04:28:57.915Z,80.78
2022-09-02T04:29:57.904Z,80.88
2022-09-02T04:30:57.965Z,80.88
2022-09-02T04:31:57.873Z,80.98
2022-09-02T04:32:57.872Z,81.19
2022-09-02T04:33:57.850Z,81.19
2022-09-02T04:34:57.852Z,81.19
2022-09-02T04:35:57.863Z,81.29
2022-09-02T04:36:57.811Z,81.39
2022-09-02T04:37:57.855Z,81.59
2022-09-02T04:38:57.792Z,81.70
2022-09-02T04:39:57.793Z,81.70
2022-09-02T04:40:57.801Z,81.93
2022-09-02T04:41:57.799Z,82.04
2022-09-02T04:42:57.777Z,82.04
2022-09-02T04:43:57.750Z,82.14
2022-09-02T04:44:57.738Z,82.24
2022-09-02T04:45:57.788Z,82.24
2022-09-02T04:46:57.736Z,82.24
2022-09-02T04:47:57.687Z,82.34
2022-09-02T04:48:57.691Z,82.34
2022-09-02T04:49:57.677Z,82.31
2022-09-02T04:50:57.656Z,82.24
2022-09-02T04:51:57.670Z,82.20
2022-09-02T04:52:57.651Z,82.10
2022-09-02T04:53:57.638Z,82.10
2022-09-02T04:54:57.684Z,82.00
2022-09-02T04:55:58.301Z,81.90
2022-09-02T04:56:57.599Z,81.79
2022-09-02T04:57:57.595Z,81.70
2022-09-02T04:58:57.576Z,81.70
2022-09-02T04:59:57.560Z,81.59
2022-09-02T05:00:57.555Z,81.59
2022-09-02T05:01:57.611Z,81.70
2022-09-02T05:02:57.720Z,81.56
2022-09-02T05:03:57.533Z,81.56
2022-09-02T05:04:57.551Z,81.35
2022-09-02T05:05:57.504Z,81.35
2022-09-02T05:06:57.498Z,81.45
2022-09-02T05:07:57.498Z,81.45
2022-09-02T05:08:57.488Z,81.56
2022-09-02T05:09:57.467Z,81.45
2022-09-02T05:10:57.454Z,81.45
2022-09-02T05:11:57.445Z,81.35
2022-09-02T05:12:57.427Z,81.25
2022-09-02T05:13:57.443Z,81.15
2022-09-02T05:14:57.484Z,81.15
2022-09-02T05:15:57.449Z,81.15
2022-09-02T05:16:57.400Z,81.11
2022-09-02T05:17:57.387Z,81.01
2022-09-02T05:18:57.345Z,80.91
2022-09-02T05:19:57.452Z,80.80
2022-09-02T05:20:57.348Z,80.71
2022-09-02T05:21:57.378Z,80.60
2022-09-02T05:22:57.319Z,80.40
2022-09-02T05:23:57.320Z,80.30
2022-09-02T05:24:57.411Z,80.19
2022-09-02T05:25:57.309Z,80.10
2022-09-02T05:26:57.368Z,79.99
2022-09-02T05:27:57.280Z,79.99
2022-09-02T05:28:57.320Z,79.85
2022-09-02T05:29:57.234Z,79.85
2022-09-02T05:30:57.294Z,79.85
2022-09-02T05:31:57.234Z,79.85
2022-09-02T05:32:57.235Z,79.85
2022-09-02T05:33:57.261Z,79.75
2022-09-02T05:34:57.187Z,79.65
2022-09-02T05:35:57.218Z,79.75
2022-09-02T05:36:57.178Z,79.75
2022-09-02T05:38:00.748Z,79.65
2022-09-02T05:38:57.151Z,79.45
2022-09-02T05:39:57.176Z,79.45
2022-09-02T05:40:57.241Z,79.35
2022-09-02T05:41:57.285Z,79.25
2022-09-02T05:42:57.091Z,79.14
2022-09-02T05:43:57.084Z,79.14
2022-09-02T05:44:57.073Z,79.04
2022-09-02T05:45:57.152Z,79.04
2022-09-02T05:46:57.051Z,79.14
2022-09-02T05:47:57.028Z,79.14
2022-09-02T05:48:57.027Z,79.04
2022-09-02T05:49:57.006Z,79.25
2022-09-02T05:50:57.730Z,79.11
2022-09-02T05:51:56.998Z,78.91
2022-09-02T05:52:56.985Z,78.91
2022-09-02T05:53:56.956Z,79.00
2022-09-02T05:54:57.005Z,78.91
2022-09-02T05:55:56.945Z,78.60
2022-09-02T05:56:56.943Z,78.60
2022-09-02T05:57:56.936Z,78.70
2022-09-02T05:58:56.900Z,78.70
2022-09-02T05:59:56.924Z,78.70
2022-09-02T06:00:56.896Z,78.60
2022-09-02T06:01:56.944Z,78.50
2022-09-02T06:02:56.942Z,78.50
2022-09-02T06:03:56.857Z,78.36
2022-09-02T06:04:56.842Z,78.46
2022-09-02T06:05:56.836Z,78.46
2022-09-02T06:06:56.814Z,78.46
2022-09-02T06:07:56.828Z,78.36
2022-09-02T06:08:56.810Z,78.36
2022-09-02T06:09:56.786Z,78.26
2022-09-02T06:10:56.847Z,78.16
2022-09-02T06:11:56.768Z,78.26
2022-09-02T06:12:56.763Z,78.06
2022-09-02T06:13:56.747Z,77.82
2022-09-02T06:14:56.738Z,77.72
2022-09-02T06:15:56.838Z,77.72
2022-09-02T06:16:56.715Z,77.72
2022-09-02T06:17:56.765Z,77.61
2022-09-02T06:18:56.729Z,77.61
2022-09-02T06:19:56.689Z,77.51
2022-09-02T06:20:56.672Z,77.51
2022-09-02T06:21:56.660Z,77.51
2022-09-02T06:22:56.636Z,77.51
2022-09-02T06:23:56.652Z,77.51
2022-09-02T06:24:56.629Z,77.61
2022-09-02T06:25:56.633Z,77.48
2022-09-02T06:26:56.600Z,77.28
2022-09-02T06:27:56.586Z,77.07
2022-09-02T06:28:56.582Z,76.97
2022-09-02T06:29:56.579Z,76.87
2022-09-02T06:30:56.679Z,76.87
2022-09-02T06:31:56.541Z,76.97
2022-09-02T06:32:56.543Z,76.87
2022-09-02T06:33:56.519Z,76.77
2022-09-02T06:34:56.525Z,76.56
2022-09-02T06:35:56.529Z,76.56
2022-09-02T06:36:56.496Z,76.43
2022-09-02T06:37:56.479Z,76.32
2022-09-02T06:38:56.477Z,76.43
2022-09-02T06:39:56.455Z,76.63
2022-09-02T06:40:56.496Z,76.53
2022-09-02T06:41:56.434Z,76.43
2022-09-02T06:42:56.451Z,76.23
2022-09-02T06:43:56.417Z,76.23
2022-09-02T06:44:56.418Z,76.12
2022-09-02T06:45:56.429Z,76.12
2022-09-02T06:46:56.401Z,76.23
2022-09-02T06:47:56.376Z,76.32
2022-09-02T06:48:56.456Z,76.43
2022-09-02T06:49:56.363Z,76.43
2022-09-02T06:50:56.346Z,76.53
2022-09-02T06:51:56.316Z,76.63
2022-09-02T06:52:56.317Z,76.63
2022-09-02T06:53:56.311Z,76.39
2022-09-02T06:54:56.290Z,76.09
2022-09-02T06:55:56.287Z,75.99
2022-09-02T06:56:56.289Z,76.09
2022-09-02T06:57:56.250Z,75.99
2022-09-02T06:58:56.264Z,75.99
2022-09-02T07:00:02.100Z,76.19
2022-09-02T07:00:56.229Z,76.09
2022-09-02T07:01:56.426Z,75.89
2022-09-02T07:02:56.200Z,75.99
2022-09-02T07:03:56.192Z,75.99
2022-09-02T07:04:57.648Z,75.89
2022-09-02T07:05:56.161Z,75.85
2022-09-02T07:06:56.160Z,75.95
2022-09-02T07:07:56.152Z,75.75
2022-09-02T07:08:56.137Z,75.55
2022-09-02T07:09:56.183Z,75.65
2022-09-02T07:10:56.113Z,75.75
2022-09-02T07:11:56.099Z,75.61
2022-09-02T07:12:56.102Z,75.71
2022-09-02T07:13:56.092Z,76.02
2022-09-02T07:14:56.087Z,75.92
2022-09-02T07:15:56.052Z,75.71
2022-09-02T07:16:56.106Z,75.48
2022-09-02T07:17:56.051Z,74.77
2022-09-02T07:18:56.032Z,74.37
2022-09-02T07:19:56.020Z,74.37
2022-09-02T07:20:56.002Z,74.26
2022-09-02T07:21:55.983Z,74.37
2022-09-02T07:22:55.980Z,74.33
2022-09-02T07:23:55.976Z,73.93
2022-09-02T07:24:55.971Z,73.82
2022-09-02T07:25:55.967Z,73.93
2022-09-02T07:26:56.097Z,73.93
2022-09-02T07:27:55.940Z,73.82
2022-09-02T07:28:55.927Z,73.72
2022-09-02T07:29:55.909Z,73.62
2022-09-02T07:30:59.661Z,73.62
2022-09-02T07:31:55.882Z,73.72
2022-09-02T07:32:55.866Z,73.72
2022-09-02T07:33:55.847Z,73.38
2022-09-02T07:34:55.857Z,73.18
2022-09-02T07:35:56.290Z,73.18
2022-09-02T07:37:00.185Z,72.98
2022-09-02T07:37:55.821Z,72.38
2022-09-02T07:38:55.805Z,72.27
2022-09-02T07:39:55.809Z,72.24
2022-09-02T07:40:56.992Z,71.94
2022-09-02T07:41:55.770Z,71.94
2022-09-02T07:43:59.603Z,71.94
2022-09-02T07:44:55.757Z,71.94
2022-09-02T07:45:55.912Z,71.94
2022-09-02T07:46:55.710Z,71.53
2022-09-02T07:47:55.708Z,71.64
2022-09-02T07:48:55.686Z,71.64
2022-09-02T07:50:55.680Z,71.20
2022-09-02T07:51:55.665Z,71.20
2022-09-02T07:52:55.641Z,71.30
2022-09-02T07:53:55.656Z,71.40
2022-09-02T07:54:55.635Z,71.40
2022-09-02T07:55:55.608Z,71.50
2022-09-02T07:56:55.645Z,71.20
2022-09-02T07:57:55.735Z,71.50
2022-09-02T07:58:55.596Z,71.40
2022-09-02T07:59:55.570Z,71.47
2022-09-02T08:00:55.635Z,71.57
2022-09-02T08:01:55.553Z,71.57
2022-09-02T08:02:55.700Z,71.57
2022-09-02T08:03:55.525Z,71.17
2022-09-02T08:04:55.516Z,71.06
2022-09-02T08:05:55.515Z,71.17
2022-09-02T08:06:55.496Z,71.26
2022-09-02T08:07:55.539Z,71.13
2022-09-02T08:08:55.500Z,71.13
2022-09-02T08:09:55.479Z,70.93
2022-09-02T08:10:55.536Z,71.03
2022-09-02T08:11:55.443Z,71.13
2022-09-02T08:12:55.451Z,71.23
2022-09-02T08:13:55.466Z,71.13
2022-09-02T08:14:55.420Z,71.00
2022-09-02T08:15:55.421Z,71.10
2022-09-02T08:16:55.491Z,71.20
2022-09-02T08:17:55.416Z,70.50
2022-09-02T08:18:55.395Z,69.38
2022-09-02T08:19:55.369Z,69.09
2022-09-02T08:20:55.347Z,68.98
2022-09-02T08:21:55.332Z,68.85
2022-09-02T08:23:05.281Z,68.65
2022-09-02T08:23:55.311Z,68.65
2022-09-02T08:24:55.329Z,68.15
2022-09-02T08:25:55.279Z,67.84
2022-09-02T08:26:55.273Z,67.94
2022-09-02T08:28:55.252Z,68.51
2022-09-02T08:29:55.250Z,67.31
2022-09-02T08:30:55.245Z,67.21
2022-09-02T08:31:55.280Z,67.81
2022-09-02T08:32:55.207Z,67.51
2022-09-02T08:33:55.193Z,67.31
2022-09-02T08:34:55.186Z,67.21
2022-09-02T08:35:55.201Z,67.21
2022-09-02T08:36:56.556Z,67.27
2022-09-02T08:37:55.150Z,67.27
2022-09-02T08:38:55.139Z,66.87
2022-09-02T08:39:55.121Z,66.87
2022-09-02T08:40:55.179Z,66.87
2022-09-02T08:41:55.159Z,66.57
2022-09-02T08:42:55.093Z,66.57
2022-09-02T08:43:55.082Z,66.57
2022-09-02T08:44:55.080Z,66.77
2022-09-02T08:45:55.109Z,66.64
2022-09-02T08:46:55.088Z,67.24
2022-09-02T08:47:55.043Z,67.35
2022-09-02T08:48:55.042Z,67.24
2022-09-02T08:49:55.019Z,66.44
2022-09-02T08:50:55.110Z,66.03
2022-09-02T08:51:55.021Z,66.14
2022-09-02T08:52:55.010Z,66.24
2022-09-02T08:53:54.983Z,65.84
2022-09-02T08:54:54.966Z,66.20
2022-09-02T08:55:54.950Z,66.31
2022-09-02T08:56:54.949Z,65.70
2022-09-02T08:57:54.963Z,65.70
2022-09-02T08:58:56.454Z,65.50
2022-09-02T08:59:54.910Z,65.30
2022-09-02T09:00:54.952Z,65.50
2022-09-02T09:01:54.980Z,65.50
2022-09-02T09:02:54.883Z,65.91
2022-09-02T09:03:54.878Z,66.17
2022-09-02T09:04:54.878Z,65.88
2022-09-02T09:05:54.847Z,65.07
2022-09-02T09:06:54.840Z,64.87
2022-09-02T09:07:54.819Z,64.67
2022-09-02T09:08:54.852Z,64.57
2022-09-02T09:09:54.809Z,64.67
2022-09-02T09:10:54.836Z,64.47
2022-09-02T09:11:54.775Z,64.47
2022-09-02T09:12:54.772Z,64.37
2022-09-02T09:13:54.766Z,64.07
2022-09-02T09:14:54.775Z,64.04
2022-09-02T09:15:54.739Z,64.24
2022-09-02T09:16:54.870Z,64.74
2022-09-02T09:17:54.708Z,64.74
2022-09-02T09:18:54.703Z,64.74
2022-09-02T09:19:54.686Z,63.53
2022-09-02T09:20:54.699Z,63.53
2022-09-02T09:21:54.658Z,63.93
2022-09-02T09:22:54.666Z,63.93
2022-09-02T09:23:54.679Z,63.23
2022-09-02T09:24:54.631Z,62.40
2022-09-02T09:25:54.659Z,62.10
2022-09-02T09:26:54.611Z,60.80
2022-09-02T09:27:54.601Z,60.69
2022-09-02T09:28:54.597Z,60.10
2022-09-02T09:29:54.579Z,59.19
2022-09-02T09:30:54.569Z,59.49
2022-09-02T09:31:54.603Z,57.89
2022-09-02T09:32:54.551Z,57.26
2022-09-02T09:33:54.530Z,57.46
2022-09-02T09:34:54.536Z,57.46
2022-09-02T09:35:54.526Z,57.76
2022-09-02T09:36:54.517Z,58.16
2022-09-02T09:37:54.494Z,58.76
2022-09-02T09:38:54.476Z,58.86
2022-09-02T09:39:54.470Z,58.53
2022-09-02T09:40:54.529Z,57.53
2022-09-02T09:41:54.457Z,57.13
2022-09-02T09:42:54.468Z,56.73
2022-09-02T09:43:54.432Z,56.93
2022-09-02T09:44:54.430Z,57.13
2022-09-02T09:45:54.517Z,56.73
2022-09-02T09:46:54.407Z,56.43
2022-09-02T09:47:57.138Z,56.43
2022-09-02T09:48:54.371Z,56.63
2022-09-02T09:49:54.355Z,56.02
2022-09-02T09:50:54.352Z,55.52
2022-09-02T09:51:54.337Z,55.73
2022-09-02T09:52:54.333Z,56.13
2022-09-02T09:53:54.312Z,56.33
2022-09-02T09:54:54.305Z,56.52
2022-09-02T09:55:54.288Z,56.02
2022-09-02T09:56:54.294Z,55.50
2022-09-02T09:57:54.280Z,55.10
2022-09-02T09:58:54.267Z,55.60
2022-09-02T09:59:54.246Z,55.60
2022-09-02T10:00:54.262Z,55.90
2022-09-02T10:01:54.327Z,55.40
2022-09-02T10:02:54.226Z,55.60
2022-09-02T10:03:54.239Z,55.80
2022-09-02T10:04:54.228Z,55.60
2022-09-02T10:05:54.188Z,55.90
2022-09-02T10:06:54.175Z,55.80
2022-09-02T10:07:54.163Z,55.60
2022-09-02T10:08:54.147Z,54.50
2022-09-02T10:09:54.447Z,54.00
2022-09-02T10:10:54.153Z,54.20
2022-09-02T10:11:54.113Z,54.77
2022-09-02T10:12:54.111Z,54.97
2022-09-02T10:13:54.093Z,55.17
2022-09-02T10:14:54.091Z,54.97
2022-09-02T10:15:54.138Z,55.27
2022-09-02T10:16:54.124Z,54.60
2022-09-02T10:17:54.080Z,55.00
2022-09-02T10:18:54.069Z,54.70
2022-09-02T10:19:54.043Z,55.02
2022-09-02T10:21:54.037Z,55.63
2022-09-02T10:22:59.524Z,56.43
2022-09-02T10:23:53.992Z,56.13
2022-09-02T10:24:53.989Z,56.33
2022-09-02T10:25:53.970Z,56.83
2022-09-02T10:26:53.981Z,56.63
2022-09-02T10:27:53.960Z,56.33
2022-09-02T10:28:53.936Z,56.52
2022-09-02T10:29:53.932Z,56.76
2022-09-02T10:30:53.914Z,56.45
2022-09-02T10:31:53.948Z,56.33
2022-09-02T10:32:53.907Z,56.23
2022-09-02T10:33:53.891Z,56.02
2022-09-02T10:34:53.870Z,54.93
2022-09-02T10:35:53.856Z,54.93
2022-09-02T10:36:53.856Z,54.80
2022-09-02T10:37:53.831Z,55.00
2022-09-02T10:38:53.851Z,55.10
2022-09-02T10:39:53.815Z,54.20
2022-09-02T10:40:53.880Z,55.20
2022-09-02T10:41:53.796Z,54.70
2022-09-02T10:42:53.783Z,54.97
2022-09-02T10:43:56.806Z,54.37
2022-09-02T10:44:57.013Z,54.77
2022-09-02T10:45:53.756Z,54.37
2022-09-02T10:46:53.983Z,54.27
2022-09-02T10:47:53.735Z,54.35
2022-09-02T10:48:53.755Z,54.74
2022-09-02T10:49:53.743Z,54.85
2022-09-02T10:50:53.701Z,54.24
2022-09-02T10:51:53.681Z,53.64
2022-09-02T10:52:53.677Z,53.94
2022-09-02T10:53:53.659Z,54.64
2022-09-02T10:54:53.656Z,54.64
2022-09-02T10:55:53.661Z,54.14
2022-09-02T10:56:53.659Z,54.57
2022-09-02T10:57:53.626Z,54.87
2022-09-02T10:58:53.663Z,54.77
2022-09-02T10:59:53.604Z,54.67
2022-09-02T11:00:53.662Z,54.94
2022-09-02T11:01:53.598Z,55.05
2022-09-02T11:02:53.562Z,54.94
2022-09-02T11:03:53.706Z,55.24
2022-09-02T11:04:55.155Z,54.44
2022-09-02T11:05:53.553Z,53.55
2022-09-02T11:07:08.880Z,52.44
2022-09-02T11:07:53.530Z,52.32
2022-09-02T11:08:53.503Z,52.52
2022-09-02T11:09:53.490Z,51.62
2022-09-02T11:10:53.489Z,51.20
2022-09-02T11:11:55.913Z,51.29
2022-09-02T11:12:53.473Z,51.69
2022-09-02T11:13:53.457Z,51.77
2022-09-02T11:14:53.429Z,51.67
2022-09-02T11:15:53.487Z,51.94
2022-09-02T11:16:53.425Z,50.54
2022-09-02T11:17:53.419Z,50.54
2022-09-02T11:18:53.389Z,50.74
2022-09-02T11:19:53.391Z,50.74
2022-09-02T11:20:53.484Z,50.84
2022-09-02T11:21:53.400Z,51.04
2022-09-02T11:22:54.356Z,49.25
2022-09-02T11:23:53.344Z,49.57
2022-09-02T11:24:53.337Z,49.97
2022-09-02T11:25:53.314Z,50.37
2022-09-02T11:26:53.300Z,50.97
2022-09-02T11:27:53.359Z,50.87
2022-09-02T11:28:53.279Z,50.29
2022-09-02T11:29:53.287Z,50.79
2022-09-02T11:30:53.276Z,50.99
2022-09-02T11:31:53.255Z,51.09
2022-09-02T11:32:53.257Z,51.20
2022-09-02T11:33:53.268Z,50.99
2022-09-02T11:34:53.240Z,51.12
2022-09-02T11:35:53.204Z,51.12
2022-09-02T11:36:53.196Z,51.42
2022-09-02T11:37:53.392Z,52.12
2022-09-02T11:38:53.169Z,51.32
2022-09-02T11:39:59.222Z,51.25
2022-09-02T11:41:53.169Z,51.84
2022-09-02T11:42:53.143Z,51.84
2022-09-02T11:43:53.172Z,52.07
2022-09-02T11:44:53.316Z,52.37
2022-09-02T11:45:53.172Z,52.97
2022-09-02T11:46:53.137Z,52.67
2022-09-02T11:47:53.075Z,52.55
2022-09-02T11:48:53.074Z,52.44
2022-09-02T11:49:53.081Z,52.64
2022-09-02T11:50:53.053Z,53.55
2022-09-02T11:51:53.042Z,52.92
2022-09-02T11:52:53.041Z,52.32
2022-09-02T11:53:54.913Z,52.09
2022-09-02T11:54:53.013Z,51.79
2022-09-02T11:55:52.987Z,50.87
2022-09-02T11:56:52.974Z,49.52
2022-09-02T11:57:52.970Z,49.00
2022-09-02T11:58:52.972Z,48.25
2022-09-02T11:59:52.957Z,48.21
2022-09-02T12:00:52.973Z,45.97
2022-09-02T12:01:52.936Z,46.45
2022-09-02T12:02:52.910Z,45.21
2022-09-02T12:04:27.593Z,44.71
2022-09-02T12:05:00.438Z,44.02
2022-09-02T12:05:53.010Z,43.01
2022-09-02T12:06:52.952Z,42.80
2022-09-02T12:07:52.863Z,42.49
2022-09-02T12:08:52.843Z,42.29
2022-09-02T12:09:52.839Z,42.57
2022-09-02T12:10:52.851Z,41.97
2022-09-02T12:11:52.813Z,42.15
2022-09-02T12:12:52.799Z,42.13
2022-09-02T12:13:52.839Z,41.93
2022-09-02T12:14:52.786Z,42.55
2022-09-02T12:15:52.863Z,42.77
2022-09-02T12:16:52.760Z,43.08
2022-09-02T12:17:52.746Z,43.60
2022-09-02T12:18:52.732Z,43.18
2022-09-02T12:19:52.762Z,42.94
2022-09-02T12:20:52.716Z,42.45
2022-09-02T12:21:52.753Z,42.47
2022-09-02T12:22:52.708Z,42.37
2022-09-02T12:23:52.689Z,42.88
2022-09-02T12:24:52.714Z,43.58
2022-09-02T12:25:52.669Z,44.20
2022-09-02T12:26:52.683Z,43.50
2022-09-02T12:27:52.765Z,43.92
2022-09-02T12:28:52.629Z,44.34
2022-09-02T12:29:52.617Z,45.06
2022-09-02T12:30:52.600Z,45.57
2022-09-02T12:31:52.670Z,45.15
2022-09-02T12:32:52.594Z,44.93
2022-09-02T12:33:52.575Z,44.02
2022-09-02T12:34:52.569Z,43.50
2022-09-02T12:35:52.547Z,43.01
2022-09-02T12:36:52.553Z,42.91
2022-09-02T12:37:53.802Z,42.88
2022-09-02T12:38:52.531Z,42.69
2022-09-02T12:39:52.509Z,42.29
2022-09-02T12:40:52.605Z,42.39
2022-09-02T12:41:52.488Z,42.09
2022-09-02T12:42:52.484Z,42.37
2022-09-02T12:43:52.485Z,42.45
2022-09-02T12:44:52.454Z,42.05
2022-09-02T12:45:52.456Z,41.83
2022-09-02T12:46:52.480Z,42.15
2022-09-02T12:47:52.443Z,41.85
2022-09-02T12:48:52.425Z,42.05
2022-09-02T12:49:52.407Z,41.87
2022-09-02T12:50:52.396Z,41.79
2022-09-02T12:51:52.376Z,42.51
2022-09-02T12:52:52.405Z,42.53
2022-09-02T12:53:52.364Z,42.63
2022-09-02T12:54:52.362Z,42.75
2022-09-02T12:55:52.337Z,42.85
2022-09-02T12:56:52.326Z,43.16